createdAt,value
2022-10-25T00:00:44.604Z,2.25
2022-10-25T00:03:16.269Z,1.70
2022-10-25T00:05:43.300Z,2.13
2022-10-25T00:08:10.458Z,2.22
2022-10-25T00:10:37.842Z,3.33
2022-10-25T00:13:06.103Z,2.75
2022-10-25T00:15:33.033Z,2.97
2022-10-25T00:17:59.971Z,3.70
2022-10-25T00:20:26.972Z,2.20
2022-10-25T00:22:54.021Z,2.95
2022-10-25T00:25:21.055Z,2.75
2022-10-25T00:27:51.936Z,3.15
2022-10-25T00:30:19.815Z,3.72
2022-10-25T00:32:58.879Z,3.50
2022-10-25T00:35:29.663Z,3.45
2022-10-25T00:37:56.812Z,3.35
2022-10-25T00:40:24.060Z,3.15
2022-10-25T00:42:51.402Z,4.07
2022-10-25T00:45:26.472Z,3.60
2022-10-25T00:50:51.587Z,3.42
2022-10-25T00:53:38.800Z,3.83
2022-10-25T00:56:19.796Z,4.75
2022-10-25T00:58:54.773Z,5.43
2022-10-25T01:01:25.886Z,4.93
2022-10-25T01:03:59.248Z,4.07
2022-10-25T01:07:04.614Z,4.22
2022-10-25T01:09:41.377Z,3.45
2022-10-25T01:12:08.771Z,3.28
2022-10-25T01:14:45.181Z,3.45
2022-10-25T01:17:44.338Z,2.53
2022-10-25T01:21:10.915Z,3.15
2022-10-25T01:24:03.614Z,2.50
2022-10-25T01:27:16.723Z,1.80
2022-10-25T01:30:31.933Z,2.15
2022-10-25T01:33:22.867Z,2.63
2022-10-25T01:36:22.703Z,2.28
2022-10-25T01:39:14.171Z,1.88
2022-10-25T01:42:19.173Z,2.30
2022-10-25T01:45:46.544Z,2.75
2022-10-25T01:48:32.138Z,2.20
2022-10-25T01:51:18.182Z,1.77
2022-10-25T01:53:52.773Z,1.92
2022-10-25T01:57:07.207Z,2.70
2022-10-25T02:00:25.635Z,2.25
2022-10-25T02:03:18.571Z,1.90
2022-10-25T02:06:02.801Z,1.77
2022-10-25T02:08:46.834Z,1.65
2022-10-25T02:11:25.279Z,1.50
2022-10-25T02:14:06.536Z,1.42
2022-10-25T02:17:10.504Z,1.63
2022-10-25T02:19:47.687Z,1.38
2022-10-25T02:22:21.461Z,1.27
2022-10-25T02:24:56.744Z,1.77
2022-10-25T02:27:30.734Z,2.00
2022-10-25T02:30:03.923Z,1.77
2022-10-25T02:32:31.777Z,1.95
2022-10-25T02:34:58.923Z,1.88
2022-10-25T02:37:26.584Z,1.92
2022-10-25T02:40:02.184Z,1.70
2022-10-25T02:42:40.375Z,2.03
2022-10-25T03:29:27.597Z,2.42
2022-10-25T03:31:55.197Z,2.25
2022-10-25T03:34:25.685Z,3.08
2022-10-25T03:36:52.860Z,3.08
2022-10-25T03:39:28.607Z,3.08
2022-10-25T03:41:56.311Z,2.92
2022-10-25T03:44:29.942Z,3.92
2022-10-25T03:46:57.572Z,3.22
2022-10-25T03:49:34.431Z,1.90
2022-10-25T03:52:04.874Z,3.17
2022-10-25T03:54:35.531Z,3.25
2022-10-25T03:57:02.987Z,3.50
2022-10-25T03:59:33.525Z,3.20
2022-10-25T04:02:06.888Z,2.33
2022-10-25T04:04:34.896Z,2.25
2022-10-25T04:07:05.137Z,1.75
2022-10-25T04:09:34.024Z,1.75
2022-10-25T04:12:01.956Z,1.92
2022-10-25T04:14:29.023Z,1.45
2022-10-25T04:16:56.164Z,1.13
2022-10-25T04:19:23.473Z,1.08
2022-10-25T04:21:51.983Z,1.38
2022-10-25T04:24:22.170Z,1.25
2022-10-25T04:26:49.568Z,1.38
2022-10-25T04:29:19.029Z,1.45
2022-10-25T04:32:01.578Z,1.85
2022-10-25T04:34:28.646Z,1.23
2022-10-25T04:36:55.530Z,1.40
2022-10-25T04:39:25.501Z,1.50
2022-10-25T04:44:41.402Z,1.55
2022-10-25T04:47:10.800Z,1.65
2022-10-25T04:49:38.157Z,1.33
2022-10-25T04:52:07.961Z,1.30
2022-10-25T04:54:34.804Z,1.35
2022-10-25T04:57:01.693Z,1.55
2022-10-25T05:04:42.792Z,1.40
2022-10-25T05:07:21.967Z,1.40
2022-10-25T05:09:52.401Z,1.63
2022-10-25T05:12:26.597Z,1.60
2022-10-25T05:14:56.487Z,1.45
2022-10-25T05:17:30.566Z,1.80
2022-10-25T05:20:07.560Z,1.60
2022-10-25T05:22:42.048Z,1.48
2022-10-25T05:25:16.142Z,1.95
2022-10-25T05:27:48.047Z,1.63
2022-10-25T05:30:18.913Z,1.70
2022-10-25T05:32:47.459Z,1.67
2022-10-25T05:38:39.542Z,1.48
2022-10-25T05:41:14.501Z,2.25
2022-10-25T05:44:07.219Z,1.83
2022-10-25T05:46:41.093Z,1.60
2022-10-25T05:49:13.287Z,1.83
2022-10-25T05:51:46.894Z,1.83
2022-10-25T05:54:50.599Z,1.90
2022-10-25T05:57:26.238Z,1.92
2022-10-25T05:59:54.440Z,2.30
2022-10-25T06:02:22.229Z,2.63
2022-10-25T06:04:52.374Z,2.17
2022-10-25T06:07:19.805Z,1.80
2022-10-25T06:09:47.001Z,2.30
2022-10-25T06:12:13.910Z,2.63
2022-10-25T06:14:40.809Z,1.73
2022-10-25T06:17:07.618Z,1.95
2022-10-25T06:19:34.481Z,2.90
2022-10-25T06:22:02.065Z,2.45
2022-10-25T06:24:29.608Z,2.63
2022-10-25T06:27:43.862Z,2.35
2022-10-25T06:30:15.775Z,3.05
2022-10-25T06:32:42.605Z,2.83
2022-10-25T06:35:09.685Z,2.25
2022-10-25T06:42:06.585Z,2.05
2022-10-25T06:44:34.225Z,1.88
2022-10-25T06:47:16.827Z,2.05
2022-10-25T06:49:45.800Z,2.58
2022-10-25T06:52:12.743Z,2.03
2022-10-25T06:54:39.820Z,2.35
2022-10-25T06:57:06.789Z,3.13
2022-10-25T06:59:35.091Z,3.28
2022-10-25T07:02:02.377Z,2.83
2022-10-25T07:04:32.378Z,3.05
2022-10-25T07:06:59.749Z,3.33
2022-10-25T07:09:26.878Z,2.80
2022-10-25T07:11:53.853Z,2.55
2022-10-25T07:14:23.563Z,2.60
2022-10-25T07:16:50.547Z,2.53
2022-10-25T07:19:18.409Z,2.45
2022-10-25T07:21:48.896Z,2.85
2022-10-25T07:24:15.942Z,3.67
2022-10-25T07:26:43.640Z,2.85
2022-10-25T07:29:10.602Z,3.13
2022-10-25T07:31:44.355Z,2.63
2022-10-25T07:34:16.807Z,2.65
2022-10-25T07:36:44.397Z,2.60
2022-10-25T07:39:11.377Z,2.03
2022-10-25T07:41:40.725Z,1.80
2022-10-25T07:44:12.998Z,2.60
2022-10-25T07:46:45.794Z,2.42
2022-10-25T07:49:29.595Z,2.72
2022-10-25T07:52:00.017Z,1.77
2022-10-25T07:54:34.143Z,5.38
2022-10-25T07:57:01.403Z,10.30
2022-10-25T07:59:28.641Z,7.95
2022-10-25T08:01:55.496Z,4.82
2022-10-25T08:04:22.620Z,3.35
2022-10-25T08:06:49.781Z,3.20
2022-10-25T08:09:33.384Z,3.22
2022-10-25T08:12:07.317Z,2.75
2022-10-25T08:14:41.690Z,3.05
2022-10-25T08:17:18.591Z,2.40
2022-10-25T08:22:36.583Z,2.47
2022-10-25T08:25:07.364Z,2.80
2022-10-25T08:27:40.193Z,2.28
2022-10-25T08:30:09.702Z,2.35
2022-10-25T08:33:11.924Z,2.60
2022-10-25T08:35:40.472Z,2.10
2022-10-25T08:42:53.262Z,2.45
2022-10-25T09:13:19.249Z,1.70
2022-10-25T09:17:15.824Z,2.28
2022-10-25T09:24:33.605Z,2.50
2022-10-25T09:27:08.005Z,2.55
2022-10-25T09:33:41.527Z,2.08
2022-10-25T09:37:24.307Z,2.42
2022-10-25T09:40:47.901Z,2.03
2022-10-25T09:44:57.283Z,2.17
2022-10-25T10:38:38.920Z,1.48
2022-10-25T10:43:06.861Z,1.92
2022-10-25T10:51:57.648Z,1.42
2022-10-25T10:55:36.388Z,1.97
2022-10-25T11:28:11.656Z,1.23
2022-10-25T11:49:13.573Z,1.08
2022-10-25T11:53:23.915Z,2.85
2022-10-25T12:19:53.424Z,1.00
2022-10-25T12:31:34.942Z,1.33
2022-10-25T12:35:25.769Z,1.40
2022-10-25T13:00:18.532Z,1.10
2022-10-25T13:04:28.718Z,1.20
2022-10-25T13:10:36.594Z,1.70
2022-10-25T13:13:30.304Z,1.38
2022-10-25T13:17:04.042Z,1.13
2022-10-25T13:20:33.357Z,1.20
2022-10-25T13:24:46.053Z,1.50
2022-10-25T13:29:03.277Z,1.23
2022-10-25T13:45:21.908Z,1.40
2022-10-25T14:16:04.995Z,1.67
2022-10-25T14:24:38.276Z,1.50
2022-10-25T14:41:40.834Z,1.35
2022-10-25T14:48:26.251Z,1.50
2022-10-25T14:55:39.758Z,1.05
2022-10-25T14:59:12.521Z,1.90
2022-10-25T15:02:49.080Z,1.13
2022-10-25T15:05:48.559Z,1.20
2022-10-25T15:16:54.834Z,1.52
2022-10-25T15:20:49.329Z,1.20
2022-10-25T15:24:52.488Z,0.80
2022-10-25T15:32:40.693Z,0.75
2022-10-25T15:36:30.622Z,0.60
2022-10-25T16:01:35.027Z,1.13
2022-10-25T16:57:34.441Z,1.80
2022-10-25T17:00:58.231Z,2.33
2022-10-25T17:05:15.885Z,1.40
2022-10-25T17:09:05.823Z,1.45
2022-10-25T17:40:11.730Z,2.15
2022-10-25T17:59:39.291Z,3.90
2022-10-25T18:02:35.270Z,3.58
2022-10-25T18:05:56.154Z,3.97
2022-10-25T18:11:59.026Z,3.70
2022-10-25T18:15:14.902Z,3.20
2022-10-25T18:18:50.279Z,3.22
2022-10-25T18:27:04.856Z,3.88
2022-10-25T18:30:49.343Z,3.97
2022-10-25T18:42:17.911Z,4.95
2022-10-25T18:45:08.008Z,4.63
2022-10-25T18:48:41.932Z,4.75
2022-10-25T18:52:03.576Z,5.25
2022-10-25T19:25:59.921Z,5.05
2022-10-25T19:29:31.472Z,4.47
2022-10-25T19:37:34.817Z,5.18
2022-10-25T19:41:16.773Z,7.18
2022-10-25T19:52:18.371Z,4.80
2022-10-25T20:34:33.499Z,5.57
2022-10-25T20:37:13.313Z,5.63
2022-10-25T20:40:09.701Z,5.38
2022-10-25T20:42:48.693Z,4.63
2022-10-25T20:45:57.577Z,4.60
2022-10-25T20:48:39.757Z,4.55
2022-10-25T20:54:12.513Z,4.85
2022-10-25T20:57:53.285Z,4.10
2022-10-25T21:06:34.628Z,4.07
2022-10-25T21:13:42.253Z,4.22
2022-10-25T21:16:59.827Z,3.60
2022-10-25T21:32:49.791Z,3.17
2022-10-25T21:36:43.448Z,3.50
2022-10-25T21:47:47.020Z,3.88
2022-10-25T21:52:34.847Z,3.03
2022-10-25T21:55:02.158Z,3.70
2022-10-25T22:08:50.295Z,3.55
2022-10-25T22:12:13.201Z,3.85
2022-10-25T22:19:18.458Z,3.70
2022-10-25T22:23:26.086Z,3.77
